sensor_id;sensor_type;location;lat;lon;timestamp;pressure;altitude;pressure_sealevel;temperature;humidity
9189;BME280;34313;50.780;6.084;2023-04-19T00:00:27;100378.81;;;9.92;93.66
9189;BME280;34313;50.780;6.084;2023-04-19T00:02:53;100378.59;;;9.98;92.94
9189;BME280;34313;50.780;6.084;2023-04-19T00:05:18;100375.88;;;9.99;93.04
9189;BME280;34313;50.780;6.084;2023-04-19T00:07:46;100378.19;;;10.07;91.89
9189;BME280;34313;50.780;6.084;2023-04-19T00:10:11;100371.78;;;10.13;91.28
9189;BME280;34313;50.780;6.084;2023-04-19T00:12:36;100374.25;;;10.17;91.00
9189;BME280;34313;50.780;6.084;2023-04-19T00:15:02;100374.13;;;10.20;90.66
9189;BME280;34313;50.780;6.084;2023-04-19T00:17:27;100367.06;;;10.21;90.18
9189;BME280;34313;50.780;6.084;2023-04-19T00:19:53;100372.16;;;10.26;89.95
9189;BME280;34313;50.780;6.084;2023-04-19T00:22:18;100372.00;;;10.29;89.56
9189;BME280;34313;50.780;6.084;2023-04-19T00:24:43;100368.19;;;10.36;89.39
9189;BME280;34313;50.780;6.084;2023-04-19T00:27:08;100366.63;;;10.32;88.72
9189;BME280;34313;50.780;6.084;2023-04-19T00:29:34;100366.50;;;10.35;89.08
9189;BME280;34313;50.780;6.084;2023-04-19T00:31:59;100373.47;;;10.36;88.28
9189;BME280;34313;50.780;6.084;2023-04-19T00:34:24;100369.75;;;10.42;87.89
9189;BME280;34313;50.780;6.084;2023-04-19T00:36:50;100365.31;;;10.42;87.44
9189;BME280;34313;50.780;6.084;2023-04-19T00:39:15;100367.94;;;10.42;87.38
9189;BME280;34313;50.780;6.084;2023-04-19T00:41:40;100362.75;;;10.40;87.29
9189;BME280;34313;50.780;6.084;2023-04-19T00:44:06;100365.50;;;10.37;87.12
9189;BME280;34313;50.780;6.084;2023-04-19T00:46:31;100364.53;;;10.40;87.09
9189;BME280;34313;50.780;6.084;2023-04-19T00:48:57;100368.06;;;10.39;86.82
9189;BME280;34313;50.780;6.084;2023-04-19T00:51:22;100360.94;;;10.41;87.01
9189;BME280;34313;50.780;6.084;2023-04-19T00:53:47;100369.13;;;10.35;86.49
9189;BME280;34313;50.780;6.084;2023-04-19T00:56:13;100368.00;;;10.40;86.59
9189;BME280;34313;50.780;6.084;2023-04-19T00:58:39;100369.31;;;10.51;85.62
9189;BME280;34313;50.780;6.084;2023-04-19T01:01:05;100362.38;;;10.48;85.21
9189;BME280;34313;50.780;6.084;2023-04-19T01:03:30;100357.94;;;10.50;84.50
9189;BME280;34313;50.780;6.084;2023-04-19T01:05:56;100360.56;;;10.50;84.41
9189;BME280;34313;50.780;6.084;2023-04-19T01:08:22;100352.91;;;10.44;84.65
9189;BME280;34313;50.780;6.084;2023-04-19T01:10:47;100360.75;;;10.46;84.38
9189;BME280;34313;50.780;6.084;2023-04-19T01:13:13;100354.78;;;10.42;84.57
9189;BME280;34313;50.780;6.084;2023-04-19T01:15:38;100354.78;;;10.42;84.07
9189;BME280;34313;50.780;6.084;2023-04-19T01:18:03;100361.75;;;10.43;84.20
9189;BME280;34313;50.780;6.084;2023-04-19T01:20:29;100359.13;;;10.43;84.20
9189;BME280;34313;50.780;6.084;2023-04-19T01:22:54;100351.47;;;10.37;84.34
9189;BME280;34313;50.780;6.084;2023-04-19T01:25:20;100356.13;;;10.30;84.78
9189;BME280;34313;50.780;6.084;2023-04-19T01:27:45;100354.13;;;10.37;84.30
9189;BME280;34313;50.780;6.084;2023-04-19T01:30:11;100348.72;;;10.40;84.12
9189;BME280;34313;50.780;6.084;2023-04-19T01:32:36;100342.72;;;10.36;83.95
9189;BME280;34313;50.780;6.084;2023-04-19T01:35:01;100349.44;;;10.44;84.11
9189;BME280;34313;50.780;6.084;2023-04-19T01:37:27;100345.72;;;10.48;83.99
9189;BME280;34313;50.780;6.084;2023-04-19T01:39:52;100339.47;;;10.50;84.04
9189;BME280;34313;50.780;6.084;2023-04-19T01:42:17;100340.41;;;10.49;83.95
9189;BME280;34313;50.780;6.084;2023-04-19T01:44:43;100339.94;;;10.39;84.26
9189;BME280;34313;50.780;6.084;2023-04-19T01:47:08;100344.09;;;10.45;84.28
9189;BME280;34313;50.780;6.084;2023-04-19T01:49:34;100345.78;;;10.46;84.46
9189;BME280;34313;50.780;6.084;2023-04-19T01:51:59;100345.94;;;10.43;84.55
9189;BME280;34313;50.780;6.084;2023-04-19T01:54:24;100353.59;;;10.27;86.19
9189;BME280;34313;50.780;6.084;2023-04-19T01:56:51;100339.41;;;10.11;88.28
9189;BME280;34313;50.780;6.084;2023-04-19T01:59:16;100344.41;;;9.96;89.62
9189;BME280;34313;50.780;6.084;2023-04-19T02:01:41;100344.13;;;9.82;91.05
9189;BME280;34313;50.780;6.084;2023-04-19T02:04:09;100343.53;;;9.75;91.71
9189;BME280;34313;50.780;6.084;2023-04-19T02:06:34;100340.84;;;9.55;92.98
9189;BME280;34313;50.780;6.084;2023-04-19T02:08:59;100339.72;;;9.40;94.24
9189;BME280;34313;50.780;6.084;2023-04-19T02:11:25;100339.47;;;9.24;95.72
9189;BME280;34313;50.780;6.084;2023-04-19T02:13:50;100331.91;;;9.15;96.38
9189;BME280;34313;50.780;6.084;2023-04-19T02:16:15;100332.28;;;9.05;97.41
9189;BME280;34313;50.780;6.084;2023-04-19T02:18:41;100328.34;;;8.94;98.53
9189;BME280;34313;50.780;6.084;2023-04-19T02:21:07;100330.22;;;8.90;99.04
9189;BME280;34313;50.780;6.084;2023-04-19T02:23:33;100328.63;;;8.86;99.06
9189;BME280;34313;50.780;6.084;2023-04-19T02:25:59;100323.06;;;8.72;100.00
9189;BME280;34313;50.780;6.084;2023-04-19T02:28:27;100330.94;;;8.72;100.00
9189;BME280;34313;50.780;6.084;2023-04-19T02:30:53;100326.13;;;8.59;100.00
9189;BME280;34313;50.780;6.084;2023-04-19T02:33:18;100343.78;;;8.56;100.00
9189;BME280;34313;50.780;6.084;2023-04-19T02:35:43;100344.22;;;8.43;100.00
9189;BME280;34313;50.780;6.084;2023-04-19T02:38:08;100338.03;;;8.44;100.00
9189;BME280;34313;50.780;6.084;2023-04-19T02:40:34;100338.19;;;8.40;100.00
9189;BME280;34313;50.780;6.084;2023-04-19T02:42:59;100333.91;;;8.37;100.00
9189;BME280;34313;50.780;6.084;2023-04-19T02:45:24;100342.13;;;8.28;100.00
9189;BME280;34313;50.780;6.084;2023-04-19T02:47:50;100342.31;;;8.22;100.00
9189;BME280;34313;50.780;6.084;2023-04-19T02:50:16;100338.84;;;8.21;100.00
9189;BME280;34313;50.780;6.084;2023-04-19T02:52:41;100345.97;;;8.18;100.00
9189;BME280;34313;50.780;6.084;2023-04-19T02:55:07;100343.44;;;8.14;100.00
9189;BME280;34313;50.780;6.084;2023-04-19T02:57:32;100347.94;;;8.11;100.00
9189;BME280;34313;50.780;6.084;2023-04-19T02:59:58;100343.00;;;8.02;100.00
9189;BME280;34313;50.780;6.084;2023-04-19T03:02:24;100349.16;;;8.01;100.00
9189;BME280;34313;50.780;6.084;2023-04-19T03:04:49;100347.25;;;8.06;100.00
9189;BME280;34313;50.780;6.084;2023-04-19T03:07:15;100349.88;;;8.06;100.00
9189;BME280;34313;50.780;6.084;2023-04-19T03:09:41;100342.63;;;8.12;100.00
9189;BME280;34313;50.780;6.084;2023-04-19T03:12:06;100351.97;;;8.21;100.00
9189;BME280;34313;50.780;6.084;2023-04-19T03:14:32;100346.56;;;8.26;100.00
9189;BME280;34313;50.780;6.084;2023-04-19T03:17:00;100337.72;;;8.28;100.00
9189;BME280;34313;50.780;6.084;2023-04-19T03:19:25;100345.25;;;8.38;100.00
9189;BME280;34313;50.780;6.084;2023-04-19T03:21:51;100344.16;;;8.45;100.00
9189;BME280;34313;50.780;6.084;2023-04-19T03:24:19;100333.44;;;8.51;100.00
9189;BME280;34313;50.780;6.084;2023-04-19T03:26:51;100338.75;;;8.49;100.00
9189;BME280;34313;50.780;6.084;2023-04-19T03:29:16;100334.38;;;8.48;100.00
9189;BME280;34313;50.780;6.084;2023-04-19T03:31:41;100328.91;;;8.55;100.00
9189;BME280;34313;50.780;6.084;2023-04-19T03:34:06;100347.31;;;8.55;100.00
9189;BME280;34313;50.780;6.084;2023-04-19T03:36:32;100328.03;;;8.56;100.00
9189;BME280;34313;50.780;6.084;2023-04-19T03:38:57;100329.56;;;8.61;100.00
9189;BME280;34313;50.780;6.084;2023-04-19T03:41:26;100327.84;;;8.60;100.00
9189;BME280;34313;50.780;6.084;2023-04-19T03:43:51;100324.31;;;8.61;100.00
9189;BME280;34313;50.780;6.084;2023-04-19T03:46:16;100322.56;;;8.60;100.00
9189;BME280;34313;50.780;6.084;2023-04-19T03:48:42;100313.69;;;8.64;100.00
9189;BME280;34313;50.780;6.084;2023-04-19T03:51:07;100321.31;;;8.70;100.00
9189;BME280;34313;50.780;6.084;2023-04-19T03:53:33;100316.97;;;8.69;100.00
9189;BME280;34313;50.780;6.084;2023-04-19T03:55:58;100319.53;;;8.71;100.00
9189;BME280;34313;50.780;6.084;2023-04-19T03:58:23;100322.84;;;8.76;100.00
9189;BME280;34313;50.780;6.084;2023-04-19T04:00:49;100323.59;;;8.80;100.00
9189;BME280;34313;50.780;6.084;2023-04-19T04:03:14;100313.97;;;8.80;100.00
9189;BME280;34313;50.780;6.084;2023-04-19T04:05:40;100318.47;;;8.77;100.00
9189;BME280;34313;50.780;6.084;2023-04-19T04:08:05;100318.13;;;8.86;100.00
9189;BME280;34313;50.780;6.084;2023-04-19T04:10:30;100311.94;;;8.87;100.00
9189;BME280;34313;50.780;6.084;2023-04-19T04:12:56;100318.81;;;8.91;100.00
9189;BME280;34313;50.780;6.084;2023-04-19T04:15:21;100317.88;;;8.92;100.00
9189;BME280;34313;50.780;6.084;2023-04-19T04:17:46;100320.59;;;8.91;100.00
9189;BME280;34313;50.780;6.084;2023-04-19T04:20:12;100323.22;;;8.91;100.00
9189;BME280;34313;50.780;6.084;2023-04-19T04:22:41;100315.13;;;8.95;100.00
9189;BME280;34313;50.780;6.084;2023-04-19T04:25:08;100322.19;;;8.95;100.00
9189;BME280;34313;50.780;6.084;2023-04-19T04:27:33;100318.69;;;8.94;100.00
9189;BME280;34313;50.780;6.084;2023-04-19T04:29:58;100327.13;;;9.02;100.00
9189;BME280;34313;50.780;6.084;2023-04-19T04:32:25;100334.16;;;9.02;100.00
9189;BME280;34313;50.780;6.084;2023-04-19T04:34:51;100329.03;;;8.99;100.00
9189;BME280;34313;50.780;6.084;2023-04-19T04:37:16;100331.44;;;9.05;100.00
9189;BME280;34313;50.780;6.084;2023-04-19T04:39:42;100334.84;;;9.07;100.00
9189;BME280;34313;50.780;6.084;2023-04-19T04:42:07;100332.06;;;9.12;100.00
9189;BME280;34313;50.780;6.084;2023-04-19T04:44:33;100338.22;;;9.11;100.00
9189;BME280;34313;50.780;6.084;2023-04-19T04:46:59;100339.06;;;9.11;100.00
9189;BME280;34313;50.780;6.084;2023-04-19T04:49:24;100330.22;;;9.14;100.00
9189;BME280;34313;50.780;6.084;2023-04-19T04:51:50;100339.69;;;9.18;100.00
9189;BME280;34313;50.780;6.084;2023-04-19T04:54:15;100341.34;;;9.20;100.00
9189;BME280;34313;50.780;6.084;2023-04-19T04:56:41;100340.53;;;9.18;100.00
9189;BME280;34313;50.780;6.084;2023-04-19T04:59:06;100344.00;;;9.20;100.00
9189;BME280;34313;50.780;6.084;2023-04-19T05:01:32;100351.47;;;9.07;100.00
9189;BME280;34313;50.780;6.084;2023-04-19T05:03:57;100347.94;;;9.08;100.00
9189;BME280;34313;50.780;6.084;2023-04-19T05:06:22;100347.06;;;9.08;100.00
9189;BME280;34313;50.780;6.084;2023-04-19T05:08:48;100347.84;;;9.12;100.00
9189;BME280;34313;50.780;6.084;2023-04-19T05:11:13;100345.78;;;9.18;100.00
9189;BME280;34313;50.780;6.084;2023-04-19T05:13:38;100336.09;;;9.20;100.00
9189;BME280;34313;50.780;6.084;2023-04-19T05:16:04;100344.84;;;9.21;100.00
9189;BME280;34313;50.780;6.084;2023-04-19T05:18:29;100342.88;;;9.26;100.00
9189;BME280;34313;50.780;6.084;2023-04-19T05:20:56;100339.47;;;9.24;100.00
9189;BME280;34313;50.780;6.084;2023-04-19T05:23:21;100338.63;;;9.22;100.00
9189;BME280;34313;50.780;6.084;2023-04-19T05:25:46;100344.78;;;9.22;100.00
9189;BME280;34313;50.780;6.084;2023-04-19T05:28:12;100338.47;;;9.26;100.00
9189;BME280;34313;50.780;6.084;2023-04-19T05:30:37;100338.34;;;9.30;100.00
9189;BME280;34313;50.780;6.084;2023-04-19T05:33:03;100332.22;;;9.29;100.00
9189;BME280;34313;50.780;6.084;2023-04-19T05:35:28;100336.63;;;9.28;100.00
9189;BME280;34313;50.780;6.084;2023-04-19T05:37:54;100331.97;;;9.35;100.00
9189;BME280;34313;50.780;6.084;2023-04-19T05:40:20;100340.91;;;9.53;100.00
9189;BME280;34313;50.780;6.084;2023-04-19T05:42:47;100339.00;;;9.57;100.00
9189;BME280;34313;50.780;6.084;2023-04-19T05:45:13;100338.84;;;9.61;100.00
9189;BME280;34313;50.780;6.084;2023-04-19T05:47:39;100334.06;;;9.71;100.00
9189;BME280;34313;50.780;6.084;2023-04-19T05:50:05;100327.63;;;9.78;100.00
9189;BME280;34313;50.780;6.084;2023-04-19T05:52:30;100336.25;;;9.82;100.00
9189;BME280;34313;50.780;6.084;2023-04-19T05:54:57;100338.41;;;9.93;100.00
9189;BME280;34313;50.780;6.084;2023-04-19T05:57:22;100333.53;;;10.04;100.00
9189;BME280;34313;50.780;6.084;2023-04-19T05:59:48;100336.66;;;10.14;100.00
9189;BME280;34313;50.780;6.084;2023-04-19T06:02:13;100338.34;;;10.15;100.00
9189;BME280;34313;50.780;6.084;2023-04-19T06:04:38;100341.25;;;10.29;100.00
9189;BME280;34313;50.780;6.084;2023-04-19T06:07:04;100339.38;;;10.33;99.19
9189;BME280;34313;50.780;6.084;2023-04-19T06:09:29;100327.03;;;10.33;98.22
9189;BME280;34313;50.780;6.084;2023-04-19T06:11:55;100333.19;;;10.53;97.89
9189;BME280;34313;50.780;6.084;2023-04-19T06:14:21;100329.69;;;10.73;97.07
9189;BME280;34313;50.780;6.084;2023-04-19T06:16:46;100323.28;;;10.97;95.56
9189;BME280;34313;50.780;6.084;2023-04-19T06:19:11;100333.78;;;11.16;93.65
9189;BME280;34313;50.780;6.084;2023-04-19T06:21:37;100333.38;;;11.07;93.43
9189;BME280;34313;50.780;6.084;2023-04-19T06:24:05;100325.03;;;11.16;93.72
9189;BME280;34313;50.780;6.084;2023-04-19T06:26:30;100331.31;;;11.13;93.15
9189;BME280;34313;50.780;6.084;2023-04-19T06:28:56;100331.53;;;11.09;93.05
9189;BME280;34313;50.780;6.084;2023-04-19T06:31:22;100328.09;;;11.07;93.09
9189;BME280;34313;50.780;6.084;2023-04-19T06:33:48;100333.81;;;10.97;93.46
9189;BME280;34313;50.780;6.084;2023-04-19T06:36:13;100324.31;;;11.12;92.59
9189;BME280;34313;50.780;6.084;2023-04-19T06:38:38;100338.84;;;11.21;91.97
9189;BME280;34313;50.780;6.084;2023-04-19T06:41:05;100333.69;;;11.37;91.41
9189;BME280;34313;50.780;6.084;2023-04-19T06:43:30;100339.94;;;11.36;90.90
9189;BME280;34313;50.780;6.084;2023-04-19T06:45:57;100338.84;;;11.21;91.26
9189;BME280;34313;50.780;6.084;2023-04-19T06:48:23;100333.50;;;11.23;91.08
9189;BME280;34313;50.780;6.084;2023-04-19T06:50:48;100343.66;;;11.49;89.48
9189;BME280;34313;50.780;6.084;2023-04-19T06:53:13;100339.28;;;11.85;88.02
9189;BME280;34313;50.780;6.084;2023-04-19T06:55:38;100343.97;;;12.15;85.51
9189;BME280;34313;50.780;6.084;2023-04-19T06:58:04;100339.66;;;11.60;87.19
9189;BME280;34313;50.780;6.084;2023-04-19T07:00:31;100353.09;;;11.90;85.85
9189;BME280;34313;50.780;6.084;2023-04-19T07:02:57;100349.03;;;12.19;84.86
9189;BME280;34313;50.780;6.084;2023-04-19T07:05:23;100334.88;;;12.38;82.85
9189;BME280;34313;50.780;6.084;2023-04-19T07:07:49;100336.28;;;12.10;84.46
9189;BME280;34313;50.780;6.084;2023-04-19T07:10:14;100337.72;;;12.51;81.83
9189;BME280;34313;50.780;6.084;2023-04-19T07:12:39;100340.94;;;12.89;80.38
9189;BME280;34313;50.780;6.084;2023-04-19T07:15:05;100332.94;;;13.22;77.90
9189;BME280;34313;50.780;6.084;2023-04-19T07:17:33;100333.03;;;14.28;74.41
9189;BME280;34313;50.780;6.084;2023-04-19T07:19:58;100333.75;;;15.30;67.95
9189;BME280;34313;50.780;6.084;2023-04-19T07:22:24;100347.56;;;15.08;66.06
9189;BME280;34313;50.780;6.084;2023-04-19T07:24:49;100340.72;;;14.32;67.88
9189;BME280;34313;50.780;6.084;2023-04-19T07:27:16;100330.66;;;14.23;68.03
9189;BME280;34313;50.780;6.084;2023-04-19T07:29:42;100333.84;;;14.73;65.82
9189;BME280;34313;50.780;6.084;2023-04-19T07:32:08;100334.94;;;14.26;66.46
9189;BME280;34313;50.780;6.084;2023-04-19T07:34:33;100330.91;;;13.74;68.07
9189;BME280;34313;50.780;6.084;2023-04-19T07:36:58;100331.97;;;13.08;69.95
9189;BME280;34313;50.780;6.084;2023-04-19T07:39:24;100326.97;;;13.03;70.53
9189;BME280;34313;50.780;6.084;2023-04-19T07:41:49;100320.78;;;13.02;70.39
9189;BME280;34313;50.780;6.084;2023-04-19T07:44:14;100326.19;;;12.85;71.60
9189;BME280;34313;50.780;6.084;2023-04-19T07:46:42;100331.03;;;12.93;71.44
9189;BME280;34313;50.780;6.084;2023-04-19T07:49:08;100320.91;;;13.01;70.76
9189;BME280;34313;50.780;6.084;2023-04-19T07:51:33;100327.50;;;13.41;69.98
9189;BME280;34313;50.780;6.084;2023-04-19T07:53:59;100330.13;;;13.41;69.84
9189;BME280;34313;50.780;6.084;2023-04-19T07:56:24;100327.72;;;13.53;69.11
9189;BME280;34313;50.780;6.084;2023-04-19T07:58:50;100332.25;;;13.81;68.29
9189;BME280;34313;50.780;6.084;2023-04-19T08:01:16;100324.44;;;14.96;64.34
9189;BME280;34313;50.780;6.084;2023-04-19T08:03:41;100330.34;;;15.83;60.17
9189;BME280;34313;50.780;6.084;2023-04-19T08:06:07;100323.88;;;15.60;59.32
9189;BME280;34313;50.780;6.084;2023-04-19T08:08:33;100313.94;;;17.42;54.33
9189;BME280;34313;50.780;6.084;2023-04-19T08:10:58;100317.38;;;18.14;51.77
9189;BME280;34313;50.780;6.084;2023-04-19T08:13:26;100314.97;;;19.57;47.75
9189;BME280;34313;50.780;6.084;2023-04-19T08:15:51;100317.06;;;19.10;47.66
9189;BME280;34313;50.780;6.084;2023-04-19T08:18:16;100322.63;;;20.67;43.87
9189;BME280;34313;50.780;6.084;2023-04-19T08:20:42;100317.44;;;19.49;44.32
9189;BME280;34313;50.780;6.084;2023-04-19T08:23:07;100313.78;;;17.91;47.88
9189;BME280;34313;50.780;6.084;2023-04-19T08:25:33;100318.47;;;16.91;50.64
9189;BME280;34313;50.780;6.084;2023-04-19T08:27:59;100330.19;;;17.98;49.25
9189;BME280;34313;50.780;6.084;2023-04-19T08:30:24;100308.56;;;19.04;46.80
9189;BME280;34313;50.780;6.084;2023-04-19T08:32:49;100309.34;;;20.86;43.17
9189;BME280;34313;50.780;6.084;2023-04-19T08:35:18;100313.22;;;22.10;39.92
9189;BME280;34313;50.780;6.084;2023-04-19T08:37:44;100309.19;;;23.91;36.22
9189;BME280;34313;50.780;6.084;2023-04-19T08:40:09;100315.94;;;23.77;36.09
9189;BME280;34313;50.780;6.084;2023-04-19T08:42:35;100318.72;;;24.29;35.43
9189;BME280;34313;50.780;6.084;2023-04-19T08:45:01;100301.81;;;21.99;37.94
9189;BME280;34313;50.780;6.084;2023-04-19T08:47:31;100309.19;;;21.58;38.92
9189;BME280;34313;50.780;6.084;2023-04-19T08:49:59;100306.75;;;22.13;37.65
9189;BME280;34313;50.780;6.084;2023-04-19T08:52:26;100303.06;;;21.36;38.66
9189;BME280;34313;50.780;6.084;2023-04-19T08:54:53;100293.75;;;21.30;38.75
9189;BME280;34313;50.780;6.084;2023-04-19T08:57:18;100289.13;;;21.52;38.84
9189;BME280;34313;50.780;6.084;2023-04-19T08:59:44;100301.25;;;22.05;37.73
9189;BME280;34313;50.780;6.084;2023-04-19T09:02:13;100294.19;;;22.89;35.92
9189;BME280;34313;50.780;6.084;2023-04-19T09:04:38;100294.75;;;23.38;35.83
9189;BME280;34313;50.780;6.084;2023-04-19T09:07:03;100290.53;;;21.85;37.30
9189;BME280;34313;50.780;6.084;2023-04-19T09:09:29;100289.34;;;22.27;36.83
9189;BME280;34313;50.780;6.084;2023-04-19T09:11:55;100291.63;;;22.12;36.46
9189;BME280;34313;50.780;6.084;2023-04-19T09:14:24;100282.06;;;21.80;36.98
9189;BME280;34313;50.780;6.084;2023-04-19T09:16:50;100271.16;;;21.13;38.16
9189;BME280;34313;50.780;6.084;2023-04-19T09:19:18;100286.53;;;20.40;39.63
9189;BME280;34313;50.780;6.084;2023-04-19T09:21:45;100283.91;;;19.44;41.51
9189;BME280;34313;50.780;6.084;2023-04-19T09:24:10;100286.88;;;18.86;42.10
9189;BME280;34313;50.780;6.084;2023-04-19T09:26:36;100294.72;;;17.85;44.87
9189;BME280;34313;50.780;6.084;2023-04-19T09:29:05;100281.94;;;16.80;47.19
9189;BME280;34313;50.780;6.084;2023-04-19T09:31:33;100281.69;;;16.47;48.33
9189;BME280;34313;50.780;6.084;2023-04-19T09:34:12;100285.72;;;16.39;48.26
9189;BME280;34313;50.780;6.084;2023-04-19T09:36:38;100276.09;;;17.12;47.61
9189;BME280;34313;50.780;6.084;2023-04-19T09:39:03;100275.56;;;17.80;45.08
9189;BME280;34313;50.780;6.084;2023-04-19T09:41:30;100265.13;;;16.80;46.70
9189;BME280;34313;50.780;6.084;2023-04-19T09:44:12;100260.25;;;17.70;45.92
9189;BME280;34313;50.780;6.084;2023-04-19T09:46:40;100270.38;;;17.06;46.12
9189;BME280;34313;50.780;6.084;2023-04-19T09:51:46;100264.63;;;16.49;46.93
9189;BME280;34313;50.780;6.084;2023-04-19T09:54:13;100259.78;;;16.04;46.43
9189;BME280;34313;50.780;6.084;2023-04-19T09:56:38;100276.47;;;15.94;46.63
9189;BME280;34313;50.780;6.084;2023-04-19T09:59:05;100261.47;;;16.05;46.70
9189;BME280;34313;50.780;6.084;2023-04-19T10:01:37;100260.31;;;16.22;45.89
9189;BME280;34313;50.780;6.084;2023-04-19T10:04:04;100265.22;;;15.36;47.92
9189;BME280;34313;50.780;6.084;2023-04-19T10:06:34;100265.84;;;15.54;48.00
9189;BME280;34313;50.780;6.084;2023-04-19T10:09:01;100259.66;;;15.80;47.49
9189;BME280;34313;50.780;6.084;2023-04-19T10:11:35;100249.75;;;15.95;46.76
9189;BME280;34313;50.780;6.084;2023-04-19T10:14:08;100240.69;;;16.62;45.52
9189;BME280;34313;50.780;6.084;2023-04-19T10:16:35;100247.72;;;16.50;45.07
9189;BME280;34313;50.780;6.084;2023-04-19T10:19:03;100239.34;;;16.05;45.23
9189;BME280;34313;50.780;6.084;2023-04-19T10:21:30;100238.63;;;15.90;45.28
9189;BME280;34313;50.780;6.084;2023-04-19T10:23:57;100236.38;;;16.22;44.30
9189;BME280;34313;50.780;6.084;2023-04-19T10:26:23;100241.00;;;15.67;44.34
9189;BME280;34313;50.780;6.084;2023-04-19T10:28:49;100231.56;;;16.02;42.99
9189;BME280;34313;50.780;6.084;2023-04-19T10:31:14;100213.41;;;15.96;43.22
9189;BME280;34313;50.780;6.084;2023-04-19T10:33:46;100222.91;;;15.60;43.56
9189;BME280;34313;50.780;6.084;2023-04-19T10:36:13;100215.31;;;16.32;41.96
9189;BME280;34313;50.780;6.084;2023-04-19T10:38:47;100217.50;;;16.88;40.16
9189;BME280;34313;50.780;6.084;2023-04-19T10:41:14;100232.28;;;16.42;40.77
9189;BME280;34313;50.780;6.084;2023-04-19T10:43:45;100214.56;;;16.04;41.11
9189;BME280;34313;50.780;6.084;2023-04-19T10:46:16;100225.59;;;15.73;42.04
9189;BME280;34313;50.780;6.084;2023-04-19T10:49:02;100230.31;;;15.95;41.12
9189;BME280;34313;50.780;6.084;2023-04-19T10:51:31;100217.56;;;15.47;41.49
9189;BME280;34313;50.780;6.084;2023-04-19T10:54:04;100246.28;;;14.73;42.68
9189;BME280;34313;50.780;6.084;2023-04-19T11:01:37;100214.22;;;14.76;43.08
9189;BME280;34313;50.780;6.084;2023-04-19T11:04:11;100214.00;;;14.66;42.58
9189;BME280;34313;50.780;6.084;2023-04-19T11:07:03;100211.13;;;14.55;42.39
9189;BME280;34313;50.780;6.084;2023-04-19T11:09:30;100201.66;;;14.65;41.94
9189;BME280;34313;50.780;6.084;2023-04-19T11:12:07;100209.03;;;15.02;41.34
9189;BME280;34313;50.780;6.084;2023-04-19T11:14:34;100200.34;;;14.44;40.91
9189;BME280;34313;50.780;6.084;2023-04-19T11:17:12;100206.53;;;14.30;40.21
9189;BME280;34313;50.780;6.084;2023-04-19T11:19:41;100185.31;;;14.30;40.84
9189;BME280;34313;50.780;6.084;2023-04-19T11:22:06;100193.94;;;14.05;40.51
9189;BME280;34313;50.780;6.084;2023-04-19T11:24:34;100186.16;;;14.30;40.58
9189;BME280;34313;50.780;6.084;2023-04-19T11:26:59;100183.41;;;14.61;40.08
9189;BME280;34313;50.780;6.084;2023-04-19T11:29:25;100188.22;;;14.68;39.96
9189;BME280;34313;50.780;6.084;2023-04-19T11:31:50;100174.69;;;14.86;39.46
9189;BME280;34313;50.780;6.084;2023-04-19T11:34:16;100169.09;;;15.30;39.12
9189;BME280;34313;50.780;6.084;2023-04-19T11:36:51;100165.34;;;14.80;38.89
9189;BME280;34313;50.780;6.084;2023-04-19T11:39:17;100167.50;;;14.32;38.88
9189;BME280;34313;50.780;6.084;2023-04-19T11:41:43;100167.31;;;13.92;39.76
9189;BME280;34313;50.780;6.084;2023-04-19T11:44:15;100165.91;;;14.00;40.37
9189;BME280;34313;50.780;6.084;2023-04-19T11:46:41;100164.78;;;14.05;39.89
9189;BME280;34313;50.780;6.084;2023-04-19T11:49:07;100164.97;;;14.16;40.28
9189;BME280;34313;50.780;6.084;2023-04-19T11:51:32;100158.13;;;14.26;39.85
9189;BME280;34313;50.780;6.084;2023-04-19T11:53:58;100152.31;;;13.92;39.79
9189;BME280;34313;50.780;6.084;2023-04-19T11:56:23;100157.03;;;13.87;40.02
9189;BME280;34313;50.780;6.084;2023-04-19T11:58:48;100149.09;;;13.87;39.91
9189;BME280;34313;50.780;6.084;2023-04-19T12:01:20;100152.56;;;13.88;39.64
9189;BME280;34313;50.780;6.084;2023-04-19T12:06:15;100138.66;;;14.54;39.04
9189;BME280;34313;50.780;6.084;2023-04-19T12:08:48;100131.47;;;14.71;39.31
9189;BME280;34313;50.780;6.084;2023-04-19T12:11:15;100161.88;;;14.65;38.54
9189;BME280;34313;50.780;6.084;2023-04-19T12:13:41;100137.25;;;14.49;38.35
9189;BME280;34313;50.780;6.084;2023-04-19T12:16:08;100133.84;;;14.61;37.87
9189;BME280;34313;50.780;6.084;2023-04-19T12:18:47;100126.22;;;14.28;37.79
9189;BME280;34313;50.780;6.084;2023-04-19T12:21:29;100143.06;;;14.41;38.25
9189;BME280;34313;50.780;6.084;2023-04-19T12:23:56;100150.47;;;14.07;38.10
9189;BME280;34313;50.780;6.084;2023-04-19T12:26:23;100138.69;;;14.40;37.73
9189;BME280;34313;50.780;6.084;2023-04-19T12:28:48;100134.25;;;14.41;37.79
9189;BME280;34313;50.780;6.084;2023-04-19T12:31:13;100144.94;;;14.39;37.18
9189;BME280;34313;50.780;6.084;2023-04-19T12:33:39;100129.56;;;14.17;36.87
9189;BME280;34313;50.780;6.084;2023-04-19T12:36:04;100134.00;;;14.31;36.51
9189;BME280;34313;50.780;6.084;2023-04-19T12:38:30;100137.72;;;13.99;36.63
9189;BME280;34313;50.780;6.084;2023-04-19T12:40:55;100130.72;;;13.84;36.81
9189;BME280;34313;50.780;6.084;2023-04-19T12:43:20;100138.19;;;13.63;36.32
9189;BME280;34313;50.780;6.084;2023-04-19T12:45:46;100131.66;;;13.69;35.43
9189;BME280;34313;50.780;6.084;2023-04-19T12:48:11;100130.91;;;13.67;35.67
9189;BME280;34313;50.780;6.084;2023-04-19T12:50:36;100134.88;;;14.03;35.58
9189;BME280;34313;50.780;6.084;2023-04-19T12:53:02;100113.88;;;13.85;35.55
9189;BME280;34313;50.780;6.084;2023-04-19T12:55:27;100127.19;;;14.12;35.33
9189;BME280;34313;50.780;6.084;2023-04-19T12:57:52;100134.28;;;14.26;34.60
9189;BME280;34313;50.780;6.084;2023-04-19T13:00:18;100115.63;;;14.28;34.74
9189;BME280;34313;50.780;6.084;2023-04-19T13:02:43;100109.09;;;14.19;34.50
9189;BME280;34313;50.780;6.084;2023-04-19T13:05:09;100114.59;;;14.16;34.54